Time;durP1;ratioP1;P1;durP2;ratioP2;P2;SDS_P1;SDS_P2;PMS_P1;PMS_P2;Temp;Humidity;BMP_temperature;BMP_pressure;BME280_temperature;BME280_humidity;BME280_pressure;Samples;Min_cycle;Max_cycle;Signal;HPM_P1;HPM_P2
2022/08/16 00:00:12;;;;;;;3.8;2.75;;;;;;;19.34;57.9375;94790.87;;;;
2022/08/16 00:01:16;;;;;;;3.8;2.75;;;;;;;19.34;57.9375;94790.87;;;;
2022/08/16 00:02:17;;;;;;;3.8;2.75;;;;;;;19.34;57.9375;94790.87;;;;
2022/08/16 00:03:18;;;;;;;3.05;2.85;;;;;;;19.32;58.48633;94795.7;;;;
2022/08/16 00:04:19;;;;;;;3.05;2.85;;;;;;;19.32;58.48633;94795.7;;;;
2022/08/16 00:05:20;;;;;;;3.05;2.85;;;;;;;19.32;58.48633;94795.7;;;;
2022/08/16 00:06:24;;;;;;;3.05;2.85;;;;;;;19.32;58.48633;94795.7;;;;
2022/08/16 00:07:24;;;;;;;3.05;2.85;;;;;;;19.32;58.48633;94795.7;;;;
2022/08/16 00:08:25;;;;;;;3.05;2.85;;;;;;;19.32;58.48633;94795.7;;;;
2022/08/16 00:09:26;;;;;;;3.05;2.85;;;;;;;19.32;58.48633;94795.7;;;;
2022/08/16 00:10:26;;;;;;;3.05;2.85;;;;;;;19.32;58.48633;94795.7;;;;
2022/08/16 00:11:29;;;;;;;3.05;2.85;;;;;;;19.32;58.48633;94795.7;;;;
2022/08/16 00:12:30;;;;;;;3.05;2.85;;;;;;;19.32;58.48633;94795.7;;;;
2022/08/16 00:13:32;;;;;;;3.05;2.85;;;;;;;19.32;58.48633;94795.7;;;;
2022/08/16 00:14:33;;;;;;;2.7;2.5;;;;;;;19.2;59.00098;94804.44;;;;
2022/08/16 00:15:34;;;;;;;2.7;2.5;;;;;;;19.2;59.00098;94804.44;;;;
2022/08/16 00:16:38;;;;;;;2.7;2.5;;;;;;;19.2;59.00098;94804.44;;;;
2022/08/16 00:17:39;;;;;;;2.7;2.5;;;;;;;19.2;59.00098;94804.44;;;;
2022/08/16 00:18:40;;;;;;;2.7;2.5;;;;;;;19.2;59.00098;94804.44;;;;
2022/08/16 00:19:41;;;;;;;2.7;2.5;;;;;;;19.2;59.00098;94804.44;;;;
2022/08/16 00:20:41;;;;;;;2.7;2.5;;;;;;;19.2;59.00098;94804.44;;;;
2022/08/16 00:21:45;;;;;;;2.7;2.5;;;;;;;19.2;59.00098;94804.44;;;;
2022/08/16 00:22:45;;;;;;;2.7;2.5;;;;;;;19.2;59.00098;94804.44;;;;
2022/08/16 00:23:47;;;;;;;2.7;2.5;;;;;;;19.2;59.00098;94804.44;;;;
2022/08/16 00:24:47;;;;;;;3.35;3;;;;;;;19.18;59.4707;94805.38;;;;
2022/08/16 00:25:48;;;;;;;3.35;3;;;;;;;19.18;59.4707;94805.38;;;;
2022/08/16 00:26:49;;;;;;;3.35;3;;;;;;;19.18;59.4707;94805.38;;;;
2022/08/16 00:27:49;;;;;;;3.35;3;;;;;;;19.18;59.4707;94805.38;;;;
2022/08/16 00:28:51;;;;;;;3.35;3;;;;;;;19.18;59.4707;94805.38;;;;
2022/08/16 00:29:51;;;;;;;3.35;3;;;;;;;19.18;59.4707;94805.38;;;;
2022/08/16 00:30:52;;;;;;;3.35;3;;;;;;;19.18;59.4707;94805.38;;;;
2022/08/16 00:31:52;;;;;;;3.35;3;;;;;;;19.18;59.4707;94805.38;;;;
2022/08/16 00:32:53;;;;;;;3.35;3;;;;;;;19.18;59.4707;94805.38;;;;
2022/08/16 00:33:57;;;;;;;3.35;3;;;;;;;19.18;59.4707;94805.38;;;;
2022/08/16 00:34:57;;;;;;;3.35;3;;;;;;;19.18;59.4707;94805.38;;;;
2022/08/16 00:35:58;;;;;;;3.1;2.8;;;;;;;19.08;60.04102;94794.73;;;;
2022/08/16 00:36:58;;;;;;;3.1;2.8;;;;;;;19.08;60.04102;94794.73;;;;
2022/08/16 00:38:01;;;;;;;3.1;2.8;;;;;;;19.08;60.04102;94794.73;;;;
2022/08/16 00:39:03;;;;;;;3.1;2.8;;;;;;;19.08;60.04102;94794.73;;;;
2022/08/16 00:40:05;;;;;;;3.1;2.8;;;;;;;19.08;60.04102;94794.73;;;;
2022/08/16 00:41:07;;;;;;;3.1;2.8;;;;;;;19.08;60.04102;94794.73;;;;
2022/08/16 00:42:07;;;;;;;3.1;2.8;;;;;;;19.08;60.04102;94794.73;;;;
2022/08/16 00:43:08;;;;;;;3.1;2.8;;;;;;;19.08;60.04102;94794.73;;;;
2022/08/16 00:44:12;;;;;;;3.1;2.8;;;;;;;19.08;60.04102;94794.73;;;;
2022/08/16 00:45:14;;;;;;;3.1;2.8;;;;;;;19.08;60.04102;94794.73;;;;
2022/08/16 00:46:27;;;;;;;3.2;3;;;;;;;19.06;60.31445;94802.65;;;;
2022/08/16 00:47:32;;;;;;;3.2;3;;;;;;;19.06;60.31445;94802.65;;;;
2022/08/16 00:48:33;;;;;;;3.2;3;;;;;;;19.06;60.31445;94802.65;;;;
2022/08/16 00:49:34;;;;;;;3.2;3;;;;;;;19.06;60.31445;94802.65;;;;
2022/08/16 00:50:36;;;;;;;3.2;3;;;;;;;19.06;60.31445;94802.65;;;;
2022/08/16 00:51:38;;;;;;;3.2;3;;;;;;;19.06;60.31445;94802.65;;;;
2022/08/16 00:52:39;;;;;;;3.2;3;;;;;;;19.06;60.31445;94802.65;;;;
2022/08/16 00:53:40;;;;;;;3.2;3;;;;;;;19.06;60.31445;94802.65;;;;
2022/08/16 00:54:41;;;;;;;3.2;3;;;;;;;19.06;60.31445;94802.65;;;;
2022/08/16 00:55:42;;;;;;;3.2;3;;;;;;;19.06;60.31445;94802.65;;;;
2022/08/16 00:56:47;;;;;;;2.900001;2.7;;;;;;;18.96;60.69824;94799.49;;;;
2022/08/16 00:57:50;;;;;;;2.900001;2.7;;;;;;;18.96;60.69824;94799.49;;;;
2022/08/16 00:58:55;;;;;;;2.900001;2.7;;;;;;;18.96;60.69824;94799.49;;;;
2022/08/16 00:59:56;;;;;;;2.900001;2.7;;;;;;;18.96;60.69824;94799.49;;;;
2022/08/16 01:00:56;;;;;;;2.900001;2.7;;;;;;;18.96;60.69824;94799.49;;;;
2022/08/16 01:01:57;;;;;;;2.900001;2.7;;;;;;;18.96;60.69824;94799.49;;;;
2022/08/16 01:02:58;;;;;;;2.900001;2.7;;;;;;;18.96;60.69824;94799.49;;;;
2022/08/16 01:04:01;;;;;;;2.900001;2.7;;;;;;;18.96;60.69824;94799.49;;;;
2022/08/16 01:05:04;;;;;;;2.900001;2.7;;;;;;;18.96;60.69824;94799.49;;;;
2022/08/16 01:06:05;;;;;;;2.900001;2.7;;;;;;;18.96;60.69824;94799.49;;;;
2022/08/16 01:07:06;;;;;;;3.1;2.8;;;;;;;18.92;61.12207;94800.69;;;;
2022/08/16 01:08:07;;;;;;;3.1;2.8;;;;;;;18.92;61.12207;94800.69;;;;
2022/08/16 01:09:10;;;;;;;3.1;2.8;;;;;;;18.92;61.12207;94800.69;;;;
2022/08/16 01:10:11;;;;;;;3.1;2.8;;;;;;;18.92;61.12207;94800.69;;;;
2022/08/16 01:11:12;;;;;;;3.1;2.8;;;;;;;18.92;61.12207;94800.69;;;;
2022/08/16 01:12:13;;;;;;;3.1;2.8;;;;;;;18.92;61.12207;94800.69;;;;
2022/08/16 01:13:13;;;;;;;3.1;2.8;;;;;;;18.92;61.12207;94800.69;;;;
2022/08/16 01:14:17;;;;;;;3.1;2.8;;;;;;;18.92;61.12207;94800.69;;;;
2022/08/16 01:15:22;;;;;;;3.1;2.8;;;;;;;18.92;61.12207;94800.69;;;;
2022/08/16 01:16:23;;;;;;;3.1;2.8;;;;;;;18.92;61.12207;94800.69;;;;
2022/08/16 01:17:27;;;;;;;3.1;2.8;;;;;;;18.92;61.12207;94800.69;;;;
2022/08/16 01:18:30;;;;;;;3.1;2.85;;;;;;;18.83;61.53906;94792.05;;;;
2022/08/16 01:19:37;;;;;;;3.1;2.85;;;;;;;18.83;61.53906;94792.05;;;;
2022/08/16 01:20:42;;;;;;;3.1;2.85;;;;;;;18.83;61.53906;94792.05;;;;
2022/08/16 01:21:50;;;;;;;3.1;2.85;;;;;;;18.83;61.53906;94792.05;;;;
2022/08/16 01:22:55;;;;;;;3.1;2.85;;;;;;;18.83;61.53906;94792.05;;;;
2022/08/16 01:24:04;;;;;;;3.1;2.85;;;;;;;18.83;61.53906;94792.05;;;;
2022/08/16 01:25:16;;;;;;;3.1;2.85;;;;;;;18.83;61.53906;94792.05;;;;
2022/08/16 01:26:21;;;;;;;3.1;2.85;;;;;;;18.83;61.53906;94792.05;;;;
2022/08/16 01:27:23;;;;;;;3.1;2.85;;;;;;;18.83;61.53906;94792.05;;;;
2022/08/16 01:28:28;;;;;;;2.900001;2.7;;;;;;;18.79;61.77539;94797.27;;;;
2022/08/16 01:29:29;;;;;;;2.900001;2.7;;;;;;;18.79;61.77539;94797.27;;;;
2022/08/16 01:30:47;;;;;;;2.900001;2.7;;;;;;;18.79;61.77539;94797.27;;;;
2022/08/16 01:31:51;;;;;;;2.900001;2.7;;;;;;;18.79;61.77539;94797.27;;;;
2022/08/16 01:32:52;;;;;;;2.900001;2.7;;;;;;;18.79;61.77539;94797.27;;;;
2022/08/16 01:33:54;;;;;;;2.900001;2.7;;;;;;;18.79;61.77539;94797.27;;;;
2022/08/16 01:34:55;;;;;;;2.900001;2.7;;;;;;;18.79;61.77539;94797.27;;;;
2022/08/16 01:35:55;;;;;;;2.900001;2.7;;;;;;;18.79;61.77539;94797.27;;;;
2022/08/16 01:37:00;;;;;;;2.900001;2.7;;;;;;;18.79;61.77539;94797.27;;;;
2022/08/16 01:38:06;;;;;;;2.900001;2.7;;;;;;;18.79;61.77539;94797.27;;;;
2022/08/16 01:39:22;;;;;;;2.95;2.75;;;;;;;18.7;62.06055;94796.65;;;;
2022/08/16 01:40:23;;;;;;;2.95;2.75;;;;;;;18.7;62.06055;94796.65;;;;
2022/08/16 01:41:28;;;;;;;2.95;2.75;;;;;;;18.7;62.06055;94796.65;;;;
2022/08/16 01:42:29;;;;;;;2.95;2.75;;;;;;;18.7;62.06055;94796.65;;;;
2022/08/16 01:43:30;;;;;;;2.95;2.75;;;;;;;18.7;62.06055;94796.65;;;;
2022/08/16 01:44:33;;;;;;;2.95;2.75;;;;;;;18.7;62.06055;94796.65;;;;
2022/08/16 01:45:34;;;;;;;2.95;2.75;;;;;;;18.7;62.06055;94796.65;;;;
2022/08/16 01:46:34;;;;;;;2.95;2.75;;;;;;;18.7;62.06055;94796.65;;;;
2022/08/16 01:47:38;;;;;;;2.95;2.75;;;;;;;18.7;62.06055;94796.65;;;;
2022/08/16 01:48:40;;;;;;;2.95;2.75;;;;;;;18.7;62.06055;94796.65;;;;
2022/08/16 01:49:40;;;;;;;3;2.7;;;;;;;18.7;62.31445;94795.31;;;;
2022/08/16 01:50:41;;;;;;;3;2.7;;;;;;;18.7;62.31445;94795.31;;;;
2022/08/16 01:51:43;;;;;;;3;2.7;;;;;;;18.7;62.31445;94795.31;;;;
2022/08/16 01:52:49;;;;;;;3;2.7;;;;;;;18.7;62.31445;94795.31;;;;
2022/08/16 01:53:49;;;;;;;3;2.7;;;;;;;18.7;62.31445;94795.31;;;;
2022/08/16 01:54:50;;;;;;;3;2.7;;;;;;;18.7;62.31445;94795.31;;;;
2022/08/16 01:55:51;;;;;;;3;2.7;;;;;;;18.7;62.31445;94795.31;;;;
2022/08/16 01:56:52;;;;;;;3;2.7;;;;;;;18.7;62.31445;94795.31;;;;
2022/08/16 01:57:53;;;;;;;3;2.7;;;;;;;18.7;62.31445;94795.31;;;;
2022/08/16 01:58:53;;;;;;;3;2.7;;;;;;;18.7;62.31445;94795.31;;;;
2022/08/16 01:59:57;;;;;;;3;2.7;;;;;;;18.7;62.31445;94795.31;;;;
2022/08/16 02:00:57;;;;;;;2.9;2.7;;;;;;;18.61;62.6084;94788.5;;;;
2022/08/16 02:01:59;;;;;;;2.9;2.7;;;;;;;18.61;62.6084;94788.5;;;;
2022/08/16 02:02:59;;;;;;;2.9;2.7;;;;;;;18.61;62.6084;94788.5;;;;
2022/08/16 02:04:00;;;;;;;2.9;2.7;;;;;;;18.61;62.6084;94788.5;;;;
2022/08/16 02:05:02;;;;;;;2.9;2.7;;;;;;;18.61;62.6084;94788.5;;;;
2022/08/16 02:06:03;;;;;;;2.9;2.7;;;;;;;18.61;62.6084;94788.5;;;;
2022/08/16 02:07:08;;;;;;;2.9;2.7;;;;;;;18.61;62.6084;94788.5;;;;
2022/08/16 02:08:09;;;;;;;2.9;2.7;;;;;;;18.61;62.6084;94788.5;;;;
2022/08/16 02:09:10;;;;;;;2.9;2.7;;;;;;;18.61;62.6084;94788.5;;;;
2022/08/16 02:10:11;;;;;;;2.9;2.7;;;;;;;18.61;62.6084;94788.5;;;;
2022/08/16 02:11:12;;;;;;;2.8;2.55;;;;;;;18.55;62.77539;94773.94;;;;
2022/08/16 02:12:15;;;;;;;2.8;2.55;;;;;;;18.55;62.77539;94773.94;;;;
2022/08/16 02:13:16;;;;;;;2.8;2.55;;;;;;;18.55;62.77539;94773.94;;;;
2022/08/16 02:14:16;;;;;;;2.8;2.55;;;;;;;18.55;62.77539;94773.94;;;;
2022/08/16 02:15:17;;;;;;;2.8;2.55;;;;;;;18.55;62.77539;94773.94;;;;
2022/08/16 02:16:21;;;;;;;2.8;2.55;;;;;;;18.55;62.77539;94773.94;;;;
2022/08/16 02:17:21;;;;;;;2.8;2.55;;;;;;;18.55;62.77539;94773.94;;;;
2022/08/16 02:18:22;;;;;;;2.8;2.55;;;;;;;18.55;62.77539;94773.94;;;;
2022/08/16 02:19:22;;;;;;;2.8;2.55;;;;;;;18.55;62.77539;94773.94;;;;
2022/08/16 02:20:24;;;;;;;2.8;2.55;;;;;;;18.55;62.77539;94773.94;;;;
2022/08/16 02:21:27;;;;;;;2.8;2.55;;;;;;;18.55;62.77539;94773.94;;;;
2022/08/16 02:22:28;;;;;;;2.6;2.4;;;;;;;18.27;63.17578;94766.49;;;;
2022/08/16 02:23:28;;;;;;;2.6;2.4;;;;;;;18.27;63.17578;94766.49;;;;
2022/08/16 02:24:29;;;;;;;2.6;2.4;;;;;;;18.27;63.17578;94766.49;;;;
2022/08/16 02:25:30;;;;;;;2.6;2.4;;;;;;;18.27;63.17578;94766.49;;;;
2022/08/16 02:26:30;;;;;;;2.6;2.4;;;;;;;18.27;63.17578;94766.49;;;;
2022/08/16 02:27:31;;;;;;;2.6;2.4;;;;;;;18.27;63.17578;94766.49;;;;
2022/08/16 02:28:31;;;;;;;2.6;2.4;;;;;;;18.27;63.17578;94766.49;;;;
2022/08/16 02:29:33;;;;;;;2.6;2.4;;;;;;;18.27;63.17578;94766.49;;;;
2022/08/16 02:30:33;;;;;;;2.6;2.4;;;;;;;18.27;63.17578;94766.49;;;;
2022/08/16 02:31:34;;;;;;;2.6;2.4;;;;;;;18.27;63.17578;94766.49;;;;
2022/08/16 02:32:35;;;;;;;2.95;2.65;;;;;;;17.96;63.76953;94766.69;;;;
2022/08/16 02:33:35;;;;;;;2.95;2.65;;;;;;;17.96;63.76953;94766.69;;;;
2022/08/16 02:34:37;;;;;;;2.95;2.65;;;;;;;17.96;63.76953;94766.69;;;;
2022/08/16 02:35:37;;;;;;;2.95;2.65;;;;;;;17.96;63.76953;94766.69;;;;
2022/08/16 02:36:38;;;;;;;2.95;2.65;;;;;;;17.96;63.76953;94766.69;;;;
2022/08/16 02:37:40;;;;;;;2.95;2.65;;;;;;;17.96;63.76953;94766.69;;;;
2022/08/16 02:38:40;;;;;;;2.95;2.65;;;;;;;17.96;63.76953;94766.69;;;;
2022/08/16 02:39:41;;;;;;;2.95;2.65;;;;;;;17.96;63.76953;94766.69;;;;
2022/08/16 02:40:42;;;;;;;2.95;2.65;;;;;;;17.96;63.76953;94766.69;;;;
2022/08/16 02:41:42;;;;;;;2.95;2.65;;;;;;;17.96;63.76953;94766.69;;;;
2022/08/16 02:42:45;;;;;;;2.95;2.65;;;;;;;17.96;63.76953;94766.69;;;;
2022/08/16 02:43:48;;;;;;;3;2.7;;;;;;;17.61;64.37598;94772.08;;;;
2022/08/16 02:44:49;;;;;;;3;2.7;;;;;;;17.61;64.37598;94772.08;;;;
2022/08/16 02:45:49;;;;;;;3;2.7;;;;;;;17.61;64.37598;94772.08;;;;
2022/08/16 02:46:50;;;;;;;3;2.7;;;;;;;17.61;64.37598;94772.08;;;;
2022/08/16 02:47:50;;;;;;;3;2.7;;;;;;;17.61;64.37598;94772.08;;;;
2022/08/16 02:48:51;;;;;;;3;2.7;;;;;;;17.61;64.37598;94772.08;;;;
2022/08/16 02:49:51;;;;;;;3;2.7;;;;;;;17.61;64.37598;94772.08;;;;
2022/08/16 02:50:52;;;;;;;3;2.7;;;;;;;17.61;64.37598;94772.08;;;;
2022/08/16 02:51:52;;;;;;;3;2.7;;;;;;;17.61;64.37598;94772.08;;;;
2022/08/16 02:52:53;;;;;;;3;2.7;;;;;;;17.61;64.37598;94772.08;;;;
2022/08/16 02:53:54;;;;;;;3.15;2.85;;;;;;;17.34;64.99609;94771.91;;;;
2022/08/16 02:54:55;;;;;;;3.15;2.85;;;;;;;17.34;64.99609;94771.91;;;;
2022/08/16 02:55:55;;;;;;;3.15;2.85;;;;;;;17.34;64.99609;94771.91;;;;
2022/08/16 02:56:56;;;;;;;3.15;2.85;;;;;;;17.34;64.99609;94771.91;;;;
2022/08/16 02:57:56;;;;;;;3.15;2.85;;;;;;;17.34;64.99609;94771.91;;;;
2022/08/16 02:58:57;;;;;;;3.15;2.85;;;;;;;17.34;64.99609;94771.91;;;;
2022/08/16 02:59:57;;;;;;;3.15;2.85;;;;;;;17.34;64.99609;94771.91;;;;
2022/08/16 03:00:58;;;;;;;3.15;2.85;;;;;;;17.34;64.99609;94771.91;;;;
2022/08/16 03:01:59;;;;;;;3.15;2.85;;;;;;;17.34;64.99609;94771.91;;;;
2022/08/16 03:02:59;;;;;;;3.15;2.85;;;;;;;17.34;64.99609;94771.91;;;;
2022/08/16 03:04:00;;;;;;;3.15;2.85;;;;;;;17.34;64.99609;94771.91;;;;
2022/08/16 03:05:03;;;;;;;2.6;2.4;;;;;;;17.03;65.5625;94767.18;;;;
2022/08/16 03:06:05;;;;;;;2.6;2.4;;;;;;;17.03;65.5625;94767.18;;;;
2022/08/16 03:07:06;;;;;;;2.6;2.4;;;;;;;17.03;65.5625;94767.18;;;;
2022/08/16 03:08:08;;;;;;;2.6;2.4;;;;;;;17.03;65.5625;94767.18;;;;
2022/08/16 03:09:08;;;;;;;2.6;2.4;;;;;;;17.03;65.5625;94767.18;;;;
2022/08/16 03:10:11;;;;;;;2.6;2.4;;;;;;;17.03;65.5625;94767.18;;;;
2022/08/16 03:11:13;;;;;;;2.6;2.4;;;;;;;17.03;65.5625;94767.18;;;;
2022/08/16 03:12:15;;;;;;;2.6;2.4;;;;;;;17.03;65.5625;94767.18;;;;
2022/08/16 03:13:16;;;;;;;2.6;2.4;;;;;;;17.03;65.5625;94767.18;;;;
2022/08/16 03:14:16;;;;;;;2.6;2.4;;;;;;;17.03;65.5625;94767.18;;;;
2022/08/16 03:15:17;;;;;;;3.05;2.65;;;;;;;16.85;66.19238;94779.68;;;;
2022/08/16 03:16:18;;;;;;;3.05;2.65;;;;;;;16.85;66.19238;94779.68;;;;
2022/08/16 03:17:20;;;;;;;3.05;2.65;;;;;;;16.85;66.19238;94779.68;;;;
2022/08/16 03:18:21;;;;;;;3.05;2.65;;;;;;;16.85;66.19238;94779.68;;;;
2022/08/16 03:19:22;;;;;;;3.05;2.65;;;;;;;16.85;66.19238;94779.68;;;;
2022/08/16 03:20:22;;;;;;;3.05;2.65;;;;;;;16.85;66.19238;94779.68;;;;
2022/08/16 03:21:24;;;;;;;3.05;2.65;;;;;;;16.85;66.19238;94779.68;;;;
2022/08/16 03:22:24;;;;;;;3.05;2.65;;;;;;;16.85;66.19238;94779.68;;;;
2022/08/16 03:23:25;;;;;;;3.05;2.65;;;;;;;16.85;66.19238;94779.68;;;;
2022/08/16 03:24:27;;;;;;;3.05;2.65;;;;;;;16.85;66.19238;94779.68;;;;
2022/08/16 03:25:27;;;;;;;3.05;2.65;;;;;;;16.85;66.19238;94779.68;;;;
2022/08/16 03:26:29;;;;;;;3.2;2.65;;;;;;;16.66;66.5459;94789.23;;;;
2022/08/16 03:27:29;;;;;;;3.2;2.65;;;;;;;16.66;66.5459;94789.23;;;;
2022/08/16 03:28:31;;;;;;;3.2;2.65;;;;;;;16.66;66.5459;94789.23;;;;
2022/08/16 03:29:32;;;;;;;3.2;2.65;;;;;;;16.66;66.5459;94789.23;;;;
2022/08/16 03:30:33;;;;;;;3.2;2.65;;;;;;;16.66;66.5459;94789.23;;;;
2022/08/16 03:31:35;;;;;;;3.2;2.65;;;;;;;16.66;66.5459;94789.23;;;;
2022/08/16 03:32:35;;;;;;;3.2;2.65;;;;;;;16.66;66.5459;94789.23;;;;
2022/08/16 03:33:36;;;;;;;3.2;2.65;;;;;;;16.66;66.5459;94789.23;;;;
2022/08/16 03:34:37;;;;;;;3.2;2.65;;;;;;;16.66;66.5459;94789.23;;;;
2022/08/16 03:35:37;;;;;;;3.2;2.65;;;;;;;16.66;66.5459;94789.23;;;;
2022/08/16 03:36:39;;;;;;;2.8;2.6;;;;;;;16.51;66.89648;94790.9;;;;
2022/08/16 03:37:42;;;;;;;2.8;2.6;;;;;;;16.51;66.89648;94790.9;;;;
2022/08/16 03:38:44;;;;;;;2.8;2.6;;;;;;;16.51;66.89648;94790.9;;;;
2022/08/16 03:39:45;;;;;;;2.8;2.6;;;;;;;16.51;66.89648;94790.9;;;;
2022/08/16 03:40:45;;;;;;;2.8;2.6;;;;;;;16.51;66.89648;94790.9;;;;
2022/08/16 03:41:46;;;;;;;2.8;2.6;;;;;;;16.51;66.89648;94790.9;;;;
2022/08/16 03:42:46;;;;;;;2.8;2.6;;;;;;;16.51;66.89648;94790.9;;;;
2022/08/16 03:43:47;;;;;;;2.8;2.6;;;;;;;16.51;66.89648;94790.9;;;;
2022/08/16 03:44:47;;;;;;;2.8;2.6;;;;;;;16.51;66.89648;94790.9;;;;
2022/08/16 03:45:48;;;;;;;2.8;2.6;;;;;;;16.51;66.89648;94790.9;;;;
2022/08/16 03:46:50;;;;;;;2.8;2.6;;;;;;;16.51;66.89648;94790.9;;;;
2022/08/16 03:47:51;;;;;;;2.7;2.35;;;;;;;16.29;67.27734;94789.28;;;;
2022/08/16 03:48:52;;;;;;;2.7;2.35;;;;;;;16.29;67.27734;94789.28;;;;
2022/08/16 03:49:53;;;;;;;2.7;2.35;;;;;;;16.29;67.27734;94789.28;;;;
2022/08/16 03:50:53;;;;;;;2.7;2.35;;;;;;;16.29;67.27734;94789.28;;;;
2022/08/16 03:51:54;;;;;;;2.7;2.35;;;;;;;16.29;67.27734;94789.28;;;;
2022/08/16 03:52:54;;;;;;;2.7;2.35;;;;;;;16.29;67.27734;94789.28;;;;
2022/08/16 03:53:56;;;;;;;2.7;2.35;;;;;;;16.29;67.27734;94789.28;;;;
2022/08/16 03:54:57;;;;;;;2.7;2.35;;;;;;;16.29;67.27734;94789.28;;;;
2022/08/16 03:55:58;;;;;;;2.7;2.35;;;;;;;16.29;67.27734;94789.28;;;;
2022/08/16 03:56:58;;;;;;;2.7;2.35;;;;;;;16.29;67.27734;94789.28;;;;
2022/08/16 03:57:59;;;;;;;3.400001;2.750001;;;;;;;16.19;67.58008;94790.59;;;;
2022/08/16 03:58:59;;;;;;;3.400001;2.750001;;;;;;;16.19;67.58008;94790.59;;;;
2022/08/16 04:00:00;;;;;;;3.400001;2.750001;;;;;;;16.19;67.58008;94790.59;;;;
2022/08/16 04:01:08;;;;;;;3.400001;2.750001;;;;;;;16.19;67.58008;94790.59;;;;
2022/08/16 04:02:10;;;;;;;3.400001;2.750001;;;;;;;16.19;67.58008;94790.59;;;;
2022/08/16 04:03:11;;;;;;;3.400001;2.750001;;;;;;;16.19;67.58008;94790.59;;;;
2022/08/16 04:04:11;;;;;;;3.400001;2.750001;;;;;;;16.19;67.58008;94790.59;;;;
2022/08/16 04:05:12;;;;;;;3.400001;2.750001;;;;;;;16.19;67.58008;94790.59;;;;
2022/08/16 04:06:14;;;;;;;3.400001;2.750001;;;;;;;16.19;67.58008;94790.59;;;;
2022/08/16 04:07:15;;;;;;;3.400001;2.750001;;;;;;;16.19;67.58008;94790.59;;;;
2022/08/16 04:08:17;;;;;;;3.400001;2.750001;;;;;;;16.19;67.58008;94790.59;;;;
2022/08/16 04:09:19;;;;;;;3.5;2.65;;;;;;;16.02;67.88184;94787.67;;;;
2022/08/16 04:10:20;;;;;;;3.5;2.65;;;;;;;16.02;67.88184;94787.67;;;;
2022/08/16 04:11:20;;;;;;;3.5;2.65;;;;;;;16.02;67.88184;94787.67;;;;
2022/08/16 04:12:21;;;;;;;3.5;2.65;;;;;;;16.02;67.88184;94787.67;;;;
2022/08/16 04:13:21;;;;;;;3.5;2.65;;;;;;;16.02;67.88184;94787.67;;;;
2022/08/16 04:14:22;;;;;;;3.5;2.65;;;;;;;16.02;67.88184;94787.67;;;;
2022/08/16 04:15:24;;;;;;;3.5;2.65;;;;;;;16.02;67.88184;94787.67;;;;
2022/08/16 04:16:26;;;;;;;3.5;2.65;;;;;;;16.02;67.88184;94787.67;;;;
2022/08/16 04:17:26;;;;;;;3.5;2.65;;;;;;;16.02;67.88184;94787.67;;;;
2022/08/16 04:18:27;;;;;;;3.5;2.65;;;;;;;16.02;67.88184;94787.67;;;;
2022/08/16 04:19:28;;;;;;;3.2;2.9;;;;;;;15.98;68.28027;94788.86;;;;
2022/08/16 04:20:29;;;;;;;3.2;2.9;;;;;;;15.98;68.28027;94788.86;;;;
2022/08/16 04:21:33;;;;;;;3.2;2.9;;;;;;;15.98;68.28027;94788.86;;;;
2022/08/16 04:22:35;;;;;;;3.2;2.9;;;;;;;15.98;68.28027;94788.86;;;;
2022/08/16 04:23:37;;;;;;;3.2;2.9;;;;;;;15.98;68.28027;94788.86;;;;
2022/08/16 04:24:38;;;;;;;3.2;2.9;;;;;;;15.98;68.28027;94788.86;;;;
2022/08/16 04:25:38;;;;;;;3.2;2.9;;;;;;;15.98;68.28027;94788.86;;;;
2022/08/16 04:26:39;;;;;;;3.2;2.9;;;;;;;15.98;68.28027;94788.86;;;;
2022/08/16 04:27:39;;;;;;;3.2;2.9;;;;;;;15.98;68.28027;94788.86;;;;
2022/08/16 04:28:40;;;;;;;3.2;2.9;;;;;;;15.98;68.28027;94788.86;;;;
2022/08/16 04:29:40;;;;;;;3.35;3.05;;;;;;;15.86;68.63086;94789.56;;;;
2022/08/16 04:30:41;;;;;;;3.35;3.05;;;;;;;15.86;68.63086;94789.56;;;;
2022/08/16 04:31:42;;;;;;;3.35;3.05;;;;;;;15.86;68.63086;94789.56;;;;
2022/08/16 04:32:42;;;;;;;3.35;3.05;;;;;;;15.86;68.63086;94789.56;;;;
2022/08/16 04:33:44;;;;;;;3.35;3.05;;;;;;;15.86;68.63086;94789.56;;;;
2022/08/16 04:34:44;;;;;;;3.35;3.05;;;;;;;15.86;68.63086;94789.56;;;;
2022/08/16 04:35:45;;;;;;;3.35;3.05;;;;;;;15.86;68.63086;94789.56;;;;
2022/08/16 04:36:46;;;;;;;3.35;3.05;;;;;;;15.86;68.63086;94789.56;;;;
2022/08/16 04:37:47;;;;;;;3.35;3.05;;;;;;;15.86;68.63086;94789.56;;;;
2022/08/16 04:38:49;;;;;;;3.35;3.05;;;;;;;15.86;68.63086;94789.56;;;;
2022/08/16 04:39:50;;;;;;;3.35;3.05;;;;;;;15.86;68.63086;94789.56;;;;
2022/08/16 04:40:51;;;;;;;4.199999;3.25;;;;;;;15.89;69.06152;94805.97;;;;
2022/08/16 04:41:52;;;;;;;4.199999;3.25;;;;;;;15.89;69.06152;94805.97;;;;
2022/08/16 04:42:52;;;;;;;4.199999;3.25;;;;;;;15.89;69.06152;94805.97;;;;
2022/08/16 04:43:53;;;;;;;4.199999;3.25;;;;;;;15.89;69.06152;94805.97;;;;
2022/08/16 04:44:54;;;;;;;4.199999;3.25;;;;;;;15.89;69.06152;94805.97;;;;
2022/08/16 04:45:55;;;;;;;4.199999;3.25;;;;;;;15.89;69.06152;94805.97;;;;
2022/08/16 04:46:56;;;;;;;4.199999;3.25;;;;;;;15.89;69.06152;94805.97;;;;
2022/08/16 04:47:58;;;;;;;4.199999;3.25;;;;;;;15.89;69.06152;94805.97;;;;
2022/08/16 04:48:59;;;;;;;4.199999;3.25;;;;;;;15.89;69.06152;94805.97;;;;
2022/08/16 04:49:59;;;;;;;4.199999;3.25;;;;;;;15.89;69.06152;94805.97;;;;
2022/08/16 04:51:00;;;;;;;4.199999;3.25;;;;;;;15.89;69.06152;94805.97;;;;
2022/08/16 04:52:01;;;;;;;3.35;3.05;;;;;;;15.91;69.30469;94814.4;;;;
2022/08/16 04:53:02;;;;;;;3.35;3.05;;;;;;;15.91;69.30469;94814.4;;;;
2022/08/16 04:54:03;;;;;;;3.35;3.05;;;;;;;15.91;69.30469;94814.4;;;;
2022/08/16 04:55:04;;;;;;;3.35;3.05;;;;;;;15.91;69.30469;94814.4;;;;
2022/08/16 04:56:11;;;;;;;3.35;3.05;;;;;;;15.91;69.30469;94814.4;;;;
2022/08/16 04:57:12;;;;;;;3.35;3.05;;;;;;;15.91;69.30469;94814.4;;;;
2022/08/16 04:58:12;;;;;;;3.35;3.05;;;;;;;15.91;69.30469;94814.4;;;;
2022/08/16 04:59:13;;;;;;;3.35;3.05;;;;;;;15.91;69.30469;94814.4;;;;
2022/08/16 05:00:14;;;;;;;3.35;3.05;;;;;;;15.91;69.30469;94814.4;;;;
2022/08/16 05:01:19;;;;;;;3.35;3.05;;;;;;;15.91;69.30469;94814.4;;;;
2022/08/16 05:02:20;;;;;;;3.400001;3.1;;;;;;;16.08;69.53809;94806.63;;;;
2022/08/16 05:03:20;;;;;;;3.400001;3.1;;;;;;;16.08;69.53809;94806.63;;;;
2022/08/16 05:04:21;;;;;;;3.400001;3.1;;;;;;;16.08;69.53809;94806.63;;;;
2022/08/16 05:05:22;;;;;;;3.400001;3.1;;;;;;;16.08;69.53809;94806.63;;;;
2022/08/16 05:06:22;;;;;;;3.400001;3.1;;;;;;;16.08;69.53809;94806.63;;;;
2022/08/16 05:07:23;;;;;;;3.400001;3.1;;;;;;;16.08;69.53809;94806.63;;;;
2022/08/16 05:08:23;;;;;;;3.400001;3.1;;;;;;;16.08;69.53809;94806.63;;;;
2022/08/16 05:09:26;;;;;;;3.400001;3.1;;;;;;;16.08;69.53809;94806.63;;;;
2022/08/16 05:10:26;;;;;;;3.400001;3.1;;;;;;;16.08;69.53809;94806.63;;;;
2022/08/16 05:11:29;;;;;;;3.400001;3.1;;;;;;;16.08;69.53809;94806.63;;;;
2022/08/16 05:12:30;;;;;;;3.95;3.55;;;;;;;16.25;69.50098;94808.62;;;;
2022/08/16 05:13:30;;;;;;;3.95;3.55;;;;;;;16.25;69.50098;94808.62;;;;
2022/08/16 05:14:33;;;;;;;3.95;3.55;;;;;;;16.25;69.50098;94808.62;;;;
2022/08/16 05:15:34;;;;;;;3.95;3.55;;;;;;;16.25;69.50098;94808.62;;;;
2022/08/16 05:16:35;;;;;;;3.95;3.55;;;;;;;16.25;69.50098;94808.62;;;;
2022/08/16 05:17:36;;;;;;;3.95;3.55;;;;;;;16.25;69.50098;94808.62;;;;
2022/08/16 05:18:37;;;;;;;3.95;3.55;;;;;;;16.25;69.50098;94808.62;;;;
2022/08/16 05:19:38;;;;;;;3.95;3.55;;;;;;;16.25;69.50098;94808.62;;;;
2022/08/16 05:20:38;;;;;;;3.95;3.55;;;;;;;16.25;69.50098;94808.62;;;;
2022/08/16 05:21:39;;;;;;;3.95;3.55;;;;;;;16.25;69.50098;94808.62;;;;
2022/08/16 05:22:41;;;;;;;3.95;3.55;;;;;;;16.25;69.50098;94808.62;;;;
2022/08/16 05:23:41;;;;;;;3.45;3.15;;;;;;;16.53;69.57617;94819.06;;;;
2022/08/16 05:24:42;;;;;;;3.45;3.15;;;;;;;16.53;69.57617;94819.06;;;;
2022/08/16 05:25:43;;;;;;;3.45;3.15;;;;;;;16.53;69.57617;94819.06;;;;
2022/08/16 05:26:43;;;;;;;3.45;3.15;;;;;;;16.53;69.57617;94819.06;;;;
2022/08/16 05:27:44;;;;;;;3.45;3.15;;;;;;;16.53;69.57617;94819.06;;;;
2022/08/16 05:28:44;;;;;;;3.45;3.15;;;;;;;16.53;69.57617;94819.06;;;;
2022/08/16 05:29:45;;;;;;;3.45;3.15;;;;;;;16.53;69.57617;94819.06;;;;
2022/08/16 05:30:46;;;;;;;3.45;3.15;;;;;;;16.53;69.57617;94819.06;;;;
2022/08/16 05:31:46;;;;;;;3.45;3.15;;;;;;;16.53;69.57617;94819.06;;;;
2022/08/16 05:32:47;;;;;;;3.45;3.15;;;;;;;16.53;69.57617;94819.06;;;;
2022/08/16 05:33:48;;;;;;;3.55;3.25;;;;;;;16.7;69.60254;94816.99;;;;
2022/08/16 05:34:48;;;;;;;3.55;3.25;;;;;;;16.7;69.60254;94816.99;;;;
2022/08/16 05:35:49;;;;;;;3.55;3.25;;;;;;;16.7;69.60254;94816.99;;;;
2022/08/16 05:36:51;;;;;;;3.55;3.25;;;;;;;16.7;69.60254;94816.99;;;;
2022/08/16 05:37:51;;;;;;;3.55;3.25;;;;;;;16.7;69.60254;94816.99;;;;
2022/08/16 05:38:52;;;;;;;3.55;3.25;;;;;;;16.7;69.60254;94816.99;;;;
2022/08/16 05:39:52;;;;;;;3.55;3.25;;;;;;;16.7;69.60254;94816.99;;;;
2022/08/16 05:40:53;;;;;;;3.55;3.25;;;;;;;16.7;69.60254;94816.99;;;;
2022/08/16 05:41:53;;;;;;;3.55;3.25;;;;;;;16.7;69.60254;94816.99;;;;
2022/08/16 05:42:54;;;;;;;3.55;3.25;;;;;;;16.7;69.60254;94816.99;;;;
2022/08/16 05:43:55;;;;;;;3.55;3.25;;;;;;;16.7;69.60254;94816.99;;;;
2022/08/16 05:44:55;;;;;;;3.45;3.15;;;;;;;17;69.45313;94824.2;;;;
2022/08/16 05:45:56;;;;;;;3.45;3.15;;;;;;;17;69.45313;94824.2;;;;
2022/08/16 05:46:58;;;;;;;3.45;3.15;;;;;;;17;69.45313;94824.2;;;;
2022/08/16 05:48:01;;;;;;;3.45;3.15;;;;;;;17;69.45313;94824.2;;;;
2022/08/16 05:49:02;;;;;;;3.45;3.15;;;;;;;17;69.45313;94824.2;;;;
2022/08/16 05:50:02;;;;;;;3.45;3.15;;;;;;;17;69.45313;94824.2;;;;
2022/08/16 05:51:05;;;;;;;3.45;3.15;;;;;;;17;69.45313;94824.2;;;;
2022/08/16 05:52:05;;;;;;;3.45;3.15;;;;;;;17;69.45313;94824.2;;;;